sensor_id;sensor_type;location;lat;lon;timestamp;temperature;humidity
17621;DHT22;8929;51.008;6.804;2023-03-04T00:01:00;5.70;1.00
17621;DHT22;8929;51.008;6.804;2023-03-04T00:03:26;5.70;1.00
17621;DHT22;8929;51.008;6.804;2023-03-04T00:05:51;5.70;1.00
17621;DHT22;8929;51.008;6.804;2023-03-04T00:08:17;5.70;99.90
17621;DHT22;8929;51.008;6.804;2023-03-04T00:10:42;5.60;1.00
17621;DHT22;8929;51.008;6.804;2023-03-04T00:13:08;5.60;1.00
17621;DHT22;8929;51.008;6.804;2023-03-04T00:15:33;5.60;1.00
17621;DHT22;8929;51.008;6.804;2023-03-04T00:17:59;5.70;1.00
17621;DHT22;8929;51.008;6.804;2023-03-04T00:20:24;5.70;1.00
17621;DHT22;8929;51.008;6.804;2023-03-04T00:22:49;5.70;99.90
17621;DHT22;8929;51.008;6.804;2023-03-04T00:25:15;5.70;99.90
17621;DHT22;8929;51.008;6.804;2023-03-04T00:27:40;5.70;99.90
17621;DHT22;8929;51.008;6.804;2023-03-04T00:30:06;5.60;99.90
17621;DHT22;8929;51.008;6.804;2023-03-04T00:32:32;5.60;1.00
17621;DHT22;8929;51.008;6.804;2023-03-04T00:34:57;5.60;99.90
17621;DHT22;8929;51.008;6.804;2023-03-04T00:37:23;5.60;1.00
17621;DHT22;8929;51.008;6.804;2023-03-04T00:39:48;5.70;99.90
17621;DHT22;8929;51.008;6.804;2023-03-04T00:42:13;5.70;99.90
17621;DHT22;8929;51.008;6.804;2023-03-04T00:44:39;5.70;99.90
17621;DHT22;8929;51.008;6.804;2023-03-04T00:47:05;5.70;99.90
17621;DHT22;8929;51.008;6.804;2023-03-04T00:49:30;5.80;99.90
17621;DHT22;8929;51.008;6.804;2023-03-04T00:51:55;5.80;99.90
17621;DHT22;8929;51.008;6.804;2023-03-04T00:54:21;5.90;99.90
17621;DHT22;8929;51.008;6.804;2023-03-04T00:56:46;5.90;99.90
17621;DHT22;8929;51.008;6.804;2023-03-04T00:59:12;5.90;99.90
17621;DHT22;8929;51.008;6.804;2023-03-04T01:01:37;5.90;1.00
17621;DHT22;8929;51.008;6.804;2023-03-04T01:04:03;5.90;1.00
17621;DHT22;8929;51.008;6.804;2023-03-04T01:06:28;5.80;1.00
17621;DHT22;8929;51.008;6.804;2023-03-04T01:08:54;5.80;1.00
17621;DHT22;8929;51.008;6.804;2023-03-04T01:11:19;5.80;1.00
17621;DHT22;8929;51.008;6.804;2023-03-04T01:13:45;5.80;1.00
17621;DHT22;8929;51.008;6.804;2023-03-04T01:16:10;5.80;1.00
17621;DHT22;8929;51.008;6.804;2023-03-04T01:18:37;5.80;99.90
17621;DHT22;8929;51.008;6.804;2023-03-04T01:21:02;5.80;99.90
17621;DHT22;8929;51.008;6.804;2023-03-04T01:23:28;5.70;1.00
17621;DHT22;8929;51.008;6.804;2023-03-04T01:25:53;5.80;99.90
17621;DHT22;8929;51.008;6.804;2023-03-04T01:28:19;5.70;38.50
17621;DHT22;8929;51.008;6.804;2023-03-04T01:30:44;5.70;63.10
17621;DHT22;8929;51.008;6.804;2023-03-04T01:33:10;5.70;99.90
17621;DHT22;8929;51.008;6.804;2023-03-04T01:35:35;5.70;24.60
17621;DHT22;8929;51.008;6.804;2023-03-04T01:38:01;5.80;1.00
17621;DHT22;8929;51.008;6.804;2023-03-04T01:40:26;5.70;1.00
17621;DHT22;8929;51.008;6.804;2023-03-04T01:42:52;5.80;1.00
17621;DHT22;8929;51.008;6.804;2023-03-04T01:45:17;5.80;1.00
17621;DHT22;8929;51.008;6.804;2023-03-04T01:47:44;5.80;1.00
17621;DHT22;8929;51.008;6.804;2023-03-04T01:50:18;5.70;1.00
17621;DHT22;8929;51.008;6.804;2023-03-04T01:52:44;5.70;14.30
17621;DHT22;8929;51.008;6.804;2023-03-04T01:55:18;5.80;1.00
17621;DHT22;8929;51.008;6.804;2023-03-04T01:57:44;5.70;1.00
17621;DHT22;8929;51.008;6.804;2023-03-04T02:00:32;5.70;1.00
17621;DHT22;8929;51.008;6.804;2023-03-04T02:02:57;5.80;1.00
17621;DHT22;8929;51.008;6.804;2023-03-04T02:05:25;5.80;99.90
17621;DHT22;8929;51.008;6.804;2023-03-04T02:07:52;5.80;99.90
17621;DHT22;8929;51.008;6.804;2023-03-04T02:10:19;5.90;99.90
17621;DHT22;8929;51.008;6.804;2023-03-04T02:12:45;5.70;1.00
17621;DHT22;8929;51.008;6.804;2023-03-04T02:15:13;5.80;99.90
17621;DHT22;8929;51.008;6.804;2023-03-04T02:17:39;5.80;99.90
17621;DHT22;8929;51.008;6.804;2023-03-04T02:22:34;5.90;50.00
17621;DHT22;8929;51.008;6.804;2023-03-04T02:25:12;5.90;99.90
17621;DHT22;8929;51.008;6.804;2023-03-04T02:27:39;6.00;1.00
17621;DHT22;8929;51.008;6.804;2023-03-04T02:30:04;6.00;1.00
17621;DHT22;8929;51.008;6.804;2023-03-04T02:32:30;6.00;1.00
17621;DHT22;8929;51.008;6.804;2023-03-04T02:34:55;6.00;1.00
17621;DHT22;8929;51.008;6.804;2023-03-04T02:37:21;5.90;99.90
17621;DHT22;8929;51.008;6.804;2023-03-04T02:39:47;5.90;99.90
17621;DHT22;8929;51.008;6.804;2023-03-04T02:42:13;5.90;99.90
17621;DHT22;8929;51.008;6.804;2023-03-04T02:44:40;6.00;1.00
17621;DHT22;8929;51.008;6.804;2023-03-04T02:47:08;6.00;1.00
17621;DHT22;8929;51.008;6.804;2023-03-04T02:49:34;6.00;1.00
17621;DHT22;8929;51.008;6.804;2023-03-04T02:52:02;6.10;1.00
17621;DHT22;8929;51.008;6.804;2023-03-04T02:54:28;6.10;1.00
17621;DHT22;8929;51.008;6.804;2023-03-04T02:56:56;6.10;99.90
17621;DHT22;8929;51.008;6.804;2023-03-04T02:59:22;6.00;1.00
17621;DHT22;8929;51.008;6.804;2023-03-04T03:01:48;6.00;99.90
17621;DHT22;8929;51.008;6.804;2023-03-04T03:04:13;6.00;1.00
17621;DHT22;8929;51.008;6.804;2023-03-04T03:06:39;6.10;99.90
17621;DHT22;8929;51.008;6.804;2023-03-04T03:09:05;6.00;1.00
17621;DHT22;8929;51.008;6.804;2023-03-04T03:11:31;6.00;1.00
17621;DHT22;8929;51.008;6.804;2023-03-04T03:13:56;6.00;1.00
17621;DHT22;8929;51.008;6.804;2023-03-04T03:16:22;6.00;1.00
17621;DHT22;8929;51.008;6.804;2023-03-04T03:18:48;6.10;1.00
17621;DHT22;8929;51.008;6.804;2023-03-04T03:21:13;6.10;1.00
17621;DHT22;8929;51.008;6.804;2023-03-04T03:23:38;6.00;1.00
17621;DHT22;8929;51.008;6.804;2023-03-04T03:26:04;6.10;99.90
17621;DHT22;8929;51.008;6.804;2023-03-04T03:28:30;6.10;99.90
17621;DHT22;8929;51.008;6.804;2023-03-04T03:30:55;6.10;99.90
17621;DHT22;8929;51.008;6.804;2023-03-04T03:33:21;6.10;99.90
17621;DHT22;8929;51.008;6.804;2023-03-04T03:35:46;6.00;12.00
17621;DHT22;8929;51.008;6.804;2023-03-04T03:38:12;6.10;1.00
17621;DHT22;8929;51.008;6.804;2023-03-04T03:40:37;6.10;83.90
17621;DHT22;8929;51.008;6.804;2023-03-04T03:43:02;6.10;11.20
17621;DHT22;8929;51.008;6.804;2023-03-04T03:45:28;6.10;27.10
17621;DHT22;8929;51.008;6.804;2023-03-04T03:47:53;6.10;99.90
17621;DHT22;8929;51.008;6.804;2023-03-04T03:50:19;6.10;67.10
17621;DHT22;8929;51.008;6.804;2023-03-04T03:52:44;6.10;99.90
17621;DHT22;8929;51.008;6.804;2023-03-04T03:55:10;6.20;1.00
17621;DHT22;8929;51.008;6.804;2023-03-04T03:57:35;6.20;99.90
17621;DHT22;8929;51.008;6.804;2023-03-04T04:00:01;6.10;1.00
17621;DHT22;8929;51.008;6.804;2023-03-04T04:02:27;6.00;1.00
17621;DHT22;8929;51.008;6.804;2023-03-04T04:04:52;6.00;1.00
17621;DHT22;8929;51.008;6.804;2023-03-04T04:07:18;6.10;1.00
17621;DHT22;8929;51.008;6.804;2023-03-04T04:09:43;6.10;1.00
17621;DHT22;8929;51.008;6.804;2023-03-04T04:12:10;6.10;1.00
17621;DHT22;8929;51.008;6.804;2023-03-04T04:14:37;6.10;1.00
17621;DHT22;8929;51.008;6.804;2023-03-04T04:17:02;6.00;1.00
17621;DHT22;8929;51.008;6.804;2023-03-04T04:19:28;6.10;1.00
17621;DHT22;8929;51.008;6.804;2023-03-04T04:21:53;6.10;1.00
17621;DHT22;8929;51.008;6.804;2023-03-04T04:24:18;6.20;1.00
17621;DHT22;8929;51.008;6.804;2023-03-04T04:26:44;6.10;99.90
17621;DHT22;8929;51.008;6.804;2023-03-04T04:29:11;6.10;99.90
17621;DHT22;8929;51.008;6.804;2023-03-04T04:31:37;6.10;99.90
17621;DHT22;8929;51.008;6.804;2023-03-04T04:34:02;6.00;99.90
17621;DHT22;8929;51.008;6.804;2023-03-04T04:36:28;6.00;99.90
17621;DHT22;8929;51.008;6.804;2023-03-04T04:38:53;6.00;99.90
17621;DHT22;8929;51.008;6.804;2023-03-04T04:41:20;6.00;99.90
17621;DHT22;8929;51.008;6.804;2023-03-04T04:43:46;6.10;99.90
17621;DHT22;8929;51.008;6.804;2023-03-04T04:46:11;6.00;99.90
17621;DHT22;8929;51.008;6.804;2023-03-04T04:48:37;6.00;99.90
17621;DHT22;8929;51.008;6.804;2023-03-04T04:51:02;6.00;99.90
17621;DHT22;8929;51.008;6.804;2023-03-04T04:53:28;6.10;99.90
17621;DHT22;8929;51.008;6.804;2023-03-04T04:55:54;6.10;99.90
17621;DHT22;8929;51.008;6.804;2023-03-04T04:58:19;6.20;99.90
17621;DHT22;8929;51.008;6.804;2023-03-04T05:00:45;6.20;99.90
17621;DHT22;8929;51.008;6.804;2023-03-04T05:03:10;6.10;1.00
17621;DHT22;8929;51.008;6.804;2023-03-04T05:05:36;6.10;99.90
17621;DHT22;8929;51.008;6.804;2023-03-04T05:08:01;6.10;99.90
17621;DHT22;8929;51.008;6.804;2023-03-04T05:10:27;6.20;99.90
17621;DHT22;8929;51.008;6.804;2023-03-04T05:12:52;6.30;99.90
17621;DHT22;8929;51.008;6.804;2023-03-04T05:15:18;6.30;99.90
17621;DHT22;8929;51.008;6.804;2023-03-04T05:17:43;6.30;45.90
17621;DHT22;8929;51.008;6.804;2023-03-04T05:20:09;6.30;1.00
17621;DHT22;8929;51.008;6.804;2023-03-04T05:22:34;6.30;5.10
17621;DHT22;8929;51.008;6.804;2023-03-04T05:25:00;6.30;1.00
17621;DHT22;8929;51.008;6.804;2023-03-04T05:27:25;6.30;91.80
17621;DHT22;8929;51.008;6.804;2023-03-04T05:29:51;6.30;97.60
17621;DHT22;8929;51.008;6.804;2023-03-04T05:32:17;6.30;91.00
17621;DHT22;8929;51.008;6.804;2023-03-04T05:34:42;6.30;61.90
17621;DHT22;8929;51.008;6.804;2023-03-04T05:37:08;6.30;9.70
17621;DHT22;8929;51.008;6.804;2023-03-04T05:39:33;6.30;1.00
17621;DHT22;8929;51.008;6.804;2023-03-04T05:41:59;6.40;1.00
17621;DHT22;8929;51.008;6.804;2023-03-04T05:44:24;6.40;1.00
17621;DHT22;8929;51.008;6.804;2023-03-04T05:46:50;6.40;1.00
17621;DHT22;8929;51.008;6.804;2023-03-04T05:49:15;6.40;1.00
17621;DHT22;8929;51.008;6.804;2023-03-04T05:51:41;6.30;1.00
17621;DHT22;8929;51.008;6.804;2023-03-04T05:54:06;6.30;1.00
17621;DHT22;8929;51.008;6.804;2023-03-04T05:56:31;6.20;41.00
17621;DHT22;8929;51.008;6.804;2023-03-04T05:58:58;6.20;99.90
17621;DHT22;8929;51.008;6.804;2023-03-04T06:01:23;6.10;99.90
17621;DHT22;8929;51.008;6.804;2023-03-04T06:03:49;6.10;99.90
17621;DHT22;8929;51.008;6.804;2023-03-04T06:06:14;6.00;1.00
17621;DHT22;8929;51.008;6.804;2023-03-04T06:08:40;6.00;1.00
17621;DHT22;8929;51.008;6.804;2023-03-04T06:11:05;6.00;95.20
17621;DHT22;8929;51.008;6.804;2023-03-04T06:13:31;6.00;1.00
17621;DHT22;8929;51.008;6.804;2023-03-04T06:15:57;6.00;1.10
17621;DHT22;8929;51.008;6.804;2023-03-04T06:18:24;6.00;56.90
17621;DHT22;8929;51.008;6.804;2023-03-04T06:20:49;6.00;1.00
17621;DHT22;8929;51.008;6.804;2023-03-04T06:23:15;6.10;1.00
17621;DHT22;8929;51.008;6.804;2023-03-04T06:25:40;6.10;1.00
17621;DHT22;8929;51.008;6.804;2023-03-04T06:28:06;6.20;79.30
17621;DHT22;8929;51.008;6.804;2023-03-04T06:30:31;6.20;1.00
17621;DHT22;8929;51.008;6.804;2023-03-04T06:32:57;6.20;24.30
17621;DHT22;8929;51.008;6.804;2023-03-04T06:35:22;6.20;99.90
17621;DHT22;8929;51.008;6.804;2023-03-04T06:37:48;6.10;99.90
17621;DHT22;8929;51.008;6.804;2023-03-04T06:40:13;6.10;1.00
17621;DHT22;8929;51.008;6.804;2023-03-04T06:42:39;6.20;99.90
17621;DHT22;8929;51.008;6.804;2023-03-04T06:45:05;6.20;1.00
17621;DHT22;8929;51.008;6.804;2023-03-04T06:47:30;6.20;1.00
17621;DHT22;8929;51.008;6.804;2023-03-04T06:49:56;6.30;99.90
17621;DHT22;8929;51.008;6.804;2023-03-04T06:52:21;6.30;92.60
17621;DHT22;8929;51.008;6.804;2023-03-04T06:54:47;6.40;1.00
17621;DHT22;8929;51.008;6.804;2023-03-04T06:57:12;6.30;1.00
17621;DHT22;8929;51.008;6.804;2023-03-04T06:59:38;6.30;1.00
17621;DHT22;8929;51.008;6.804;2023-03-04T07:02:03;6.30;1.00
17621;DHT22;8929;51.008;6.804;2023-03-04T07:04:29;6.30;1.00
17621;DHT22;8929;51.008;6.804;2023-03-04T07:06:54;6.40;99.90
17621;DHT22;8929;51.008;6.804;2023-03-04T07:09:20;6.30;99.90
17621;DHT22;8929;51.008;6.804;2023-03-04T07:11:45;6.30;99.90
17621;DHT22;8929;51.008;6.804;2023-03-04T07:14:11;6.30;1.00
17621;DHT22;8929;51.008;6.804;2023-03-04T07:16:36;6.20;1.00
17621;DHT22;8929;51.008;6.804;2023-03-04T07:19:02;6.30;1.00
17621;DHT22;8929;51.008;6.804;2023-03-04T07:21:28;6.30;1.00
17621;DHT22;8929;51.008;6.804;2023-03-04T07:23:53;6.40;1.00
17621;DHT22;8929;51.008;6.804;2023-03-04T07:26:19;6.30;1.00
17621;DHT22;8929;51.008;6.804;2023-03-04T07:28:45;6.40;1.00
17621;DHT22;8929;51.008;6.804;2023-03-04T07:31:18;6.40;1.00
17621;DHT22;8929;51.008;6.804;2023-03-04T07:33:44;6.50;1.00
17621;DHT22;8929;51.008;6.804;2023-03-04T07:36:10;6.50;1.00
17621;DHT22;8929;51.008;6.804;2023-03-04T07:38:35;6.60;87.80
17621;DHT22;8929;51.008;6.804;2023-03-04T07:41:01;6.70;1.00
17621;DHT22;8929;51.008;6.804;2023-03-04T07:43:26;6.70;1.00
17621;DHT22;8929;51.008;6.804;2023-03-04T07:45:57;6.80;1.00
17621;DHT22;8929;51.008;6.804;2023-03-04T07:48:22;6.90;99.90
17621;DHT22;8929;51.008;6.804;2023-03-04T07:50:48;6.90;99.90
17621;DHT22;8929;51.008;6.804;2023-03-04T07:53:13;6.90;99.90
17621;DHT22;8929;51.008;6.804;2023-03-04T07:55:39;6.90;99.90
17621;DHT22;8929;51.008;6.804;2023-03-04T07:58:04;7.00;99.90
17621;DHT22;8929;51.008;6.804;2023-03-04T08:00:30;7.00;99.90
17621;DHT22;8929;51.008;6.804;2023-03-04T08:02:55;6.90;1.00
17621;DHT22;8929;51.008;6.804;2023-03-04T08:05:21;6.90;1.00
17621;DHT22;8929;51.008;6.804;2023-03-04T08:07:46;7.00;1.00
17621;DHT22;8929;51.008;6.804;2023-03-04T08:10:12;7.10;1.00
17621;DHT22;8929;51.008;6.804;2023-03-04T08:12:37;7.10;99.90
17621;DHT22;8929;51.008;6.804;2023-03-04T08:15:03;7.00;99.90
17621;DHT22;8929;51.008;6.804;2023-03-04T08:17:28;7.10;99.90
17621;DHT22;8929;51.008;6.804;2023-03-04T08:19:54;7.20;99.90
17621;DHT22;8929;51.008;6.804;2023-03-04T08:22:20;7.30;99.90
17621;DHT22;8929;51.008;6.804;2023-03-04T08:24:45;7.30;99.90
17621;DHT22;8929;51.008;6.804;2023-03-04T08:27:10;7.10;99.90
17621;DHT22;8929;51.008;6.804;2023-03-04T08:29:36;7.00;99.90
17621;DHT22;8929;51.008;6.804;2023-03-04T08:32:02;6.80;99.90
17621;DHT22;8929;51.008;6.804;2023-03-04T08:34:27;7.00;1.00
17621;DHT22;8929;51.008;6.804;2023-03-04T08:36:53;7.00;99.90
17621;DHT22;8929;51.008;6.804;2023-03-04T08:39:18;7.20;99.90
17621;DHT22;8929;51.008;6.804;2023-03-04T08:41:44;7.30;1.00
17621;DHT22;8929;51.008;6.804;2023-03-04T08:44:10;7.50;1.00
17621;DHT22;8929;51.008;6.804;2023-03-04T08:46:36;7.50;99.90
17621;DHT22;8929;51.008;6.804;2023-03-04T08:49:02;7.30;99.90
17621;DHT22;8929;51.008;6.804;2023-03-04T08:51:28;7.50;1.00
17621;DHT22;8929;51.008;6.804;2023-03-04T08:53:54;7.90;97.80
17621;DHT22;8929;51.008;6.804;2023-03-04T08:56:19;7.90;99.90
17621;DHT22;8929;51.008;6.804;2023-03-04T08:58:45;8.00;1.00
17621;DHT22;8929;51.008;6.804;2023-03-04T09:01:11;7.70;1.00
17621;DHT22;8929;51.008;6.804;2023-03-04T09:03:37;7.60;99.90
17621;DHT22;8929;51.008;6.804;2023-03-04T09:06:03;7.60;1.00
17621;DHT22;8929;51.008;6.804;2023-03-04T09:08:29;7.80;99.90
17621;DHT22;8929;51.008;6.804;2023-03-04T09:10:58;8.10;1.00
17621;DHT22;8929;51.008;6.804;2023-03-04T09:13:24;8.30;99.90
17621;DHT22;8929;51.008;6.804;2023-03-04T09:15:50;8.50;1.00
17621;DHT22;8929;51.008;6.804;2023-03-04T09:18:16;8.70;1.00
17621;DHT22;8929;51.008;6.804;2023-03-04T09:20:42;9.00;1.00
17621;DHT22;8929;51.008;6.804;2023-03-04T09:23:07;9.30;1.00
17621;DHT22;8929;51.008;6.804;2023-03-04T09:28:33;9.20;1.00
17621;DHT22;8929;51.008;6.804;2023-03-04T09:30:59;9.10;1.00
17621;DHT22;8929;51.008;6.804;2023-03-04T09:33:24;9.20;1.00
17621;DHT22;8929;51.008;6.804;2023-03-04T09:35:50;9.20;1.00
17621;DHT22;8929;51.008;6.804;2023-03-04T09:38:18;9.10;1.00
17621;DHT22;8929;51.008;6.804;2023-03-04T09:43:47;9.00;1.00
17621;DHT22;8929;51.008;6.804;2023-03-04T09:49:15;9.30;99.90
17621;DHT22;8929;51.008;6.804;2023-03-04T09:56:48;8.70;1.00
17621;DHT22;8929;51.008;6.804;2023-03-04T10:01:48;8.40;1.00
17621;DHT22;8929;51.008;6.804;2023-03-04T10:04:33;8.50;99.90
17621;DHT22;8929;51.008;6.804;2023-03-04T10:07:00;8.40;1.00
17621;DHT22;8929;51.008;6.804;2023-03-04T10:09:31;8.30;99.90
17621;DHT22;8929;51.008;6.804;2023-03-04T10:12:04;8.40;1.00
17621;DHT22;8929;51.008;6.804;2023-03-04T10:14:37;8.30;99.90
17621;DHT22;8929;51.008;6.804;2023-03-04T10:19:37;8.30;1.00
17621;DHT22;8929;51.008;6.804;2023-03-04T10:22:14;8.40;99.90
17621;DHT22;8929;51.008;6.804;2023-03-04T10:24:40;8.60;99.90
17621;DHT22;8929;51.008;6.804;2023-03-04T10:27:06;8.70;1.00
17621;DHT22;8929;51.008;6.804;2023-03-04T10:29:34;9.10;99.90
17621;DHT22;8929;51.008;6.804;2023-03-04T10:32:00;9.30;1.00
17621;DHT22;8929;51.008;6.804;2023-03-04T10:34:26;9.40;1.00
17621;DHT22;8929;51.008;6.804;2023-03-04T10:39:33;9.50;99.90
17621;DHT22;8929;51.008;6.804;2023-03-04T10:42:04;9.60;84.70
17621;DHT22;8929;51.008;6.804;2023-03-04T10:44:30;9.80;1.00
17621;DHT22;8929;51.008;6.804;2023-03-04T10:46:56;9.90;1.00
17621;DHT22;8929;51.008;6.804;2023-03-04T10:49:22;10.10;1.00
17621;DHT22;8929;51.008;6.804;2023-03-04T10:51:53;10.10;1.00
17621;DHT22;8929;51.008;6.804;2023-03-04T10:54:30;10.00;1.00
17621;DHT22;8929;51.008;6.804;2023-03-04T10:56:57;10.00;99.90
17621;DHT22;8929;51.008;6.804;2023-03-04T11:02:00;10.10;99.90
17621;DHT22;8929;51.008;6.804;2023-03-04T11:04:27;9.90;99.90
17621;DHT22;8929;51.008;6.804;2023-03-04T11:06:56;9.70;99.90
17621;DHT22;8929;51.008;6.804;2023-03-04T11:14:51;9.80;1.00
17621;DHT22;8929;51.008;6.804;2023-03-04T11:31:10;9.70;99.90
17621;DHT22;8929;51.008;6.804;2023-03-04T11:49:05;8.80;99.90
17621;DHT22;8929;51.008;6.804;2023-03-04T11:52:04;8.90;99.90
17621;DHT22;8929;51.008;6.804;2023-03-04T11:55:03;9.10;99.90
17621;DHT22;8929;51.008;6.804;2023-03-04T11:57:36;9.40;1.00
17621;DHT22;8929;51.008;6.804;2023-03-04T12:05:35;10.10;99.90
17621;DHT22;8929;51.008;6.804;2023-03-04T12:08:18;10.80;99.90
17621;DHT22;8929;51.008;6.804;2023-03-04T12:10:48;11.60;99.90
17621;DHT22;8929;51.008;6.804;2023-03-04T12:15:43;11.90;1.00
17621;DHT22;8929;51.008;6.804;2023-03-04T12:18:25;11.60;1.00
17621;DHT22;8929;51.008;6.804;2023-03-04T12:23:47;11.20;1.00
17621;DHT22;8929;51.008;6.804;2023-03-04T12:26:32;10.80;1.00
17621;DHT22;8929;51.008;6.804;2023-03-04T14:31:33;9.50;1.00
17621;DHT22;8929;51.008;6.804;2023-03-04T14:55:01;9.20;99.90
17621;DHT22;8929;51.008;6.804;2023-03-04T14:57:28;9.30;1.00
17621;DHT22;8929;51.008;6.804;2023-03-04T14:59:56;9.30;1.00
17621;DHT22;8929;51.008;6.804;2023-03-04T15:02:42;9.30;1.00
17621;DHT22;8929;51.008;6.804;2023-03-04T15:05:09;9.20;47.80
17621;DHT22;8929;51.008;6.804;2023-03-04T15:07:36;9.30;1.00
17621;DHT22;8929;51.008;6.804;2023-03-04T15:41:59;9.00;1.00
17621;DHT22;8929;51.008;6.804;2023-03-04T17:16:48;7.90;1.00
17621;DHT22;8929;51.008;6.804;2023-03-04T17:19:14;8.00;1.00
17621;DHT22;8929;51.008;6.804;2023-03-04T17:21:40;8.00;1.00
17621;DHT22;8929;51.008;6.804;2023-03-04T17:24:05;8.10;1.00
17621;DHT22;8929;51.008;6.804;2023-03-04T17:26:33;8.00;1.00
17621;DHT22;8929;51.008;6.804;2023-03-04T17:49:35;8.20;1.00
17621;DHT22;8929;51.008;6.804;2023-03-04T17:52:32;8.20;1.00
17621;DHT22;8929;51.008;6.804;2023-03-04T17:55:40;8.20;1.00
17621;DHT22;8929;51.008;6.804;2023-03-04T17:58:36;8.10;1.00
17621;DHT22;8929;51.008;6.804;2023-03-04T23:53:11;6.30;99.90
17621;DHT22;8929;51.008;6.804;2023-03-04T23:55:36;6.20;99.90
17621;DHT22;8929;51.008;6.804;2023-03-04T23:58:02;6.20;99.90
